createdAt,value
2022-11-16T00:01:17.423Z,7.63
2022-11-16T00:03:45.731Z,7.70
2022-11-16T00:06:15.730Z,8.77
2022-11-16T00:08:45.524Z,8.30
2022-11-16T00:11:16.051Z,6.80
2022-11-16T00:13:46.165Z,9.60
2022-11-16T00:16:16.946Z,7.43
2022-11-16T00:18:45.402Z,6.60
2022-11-16T00:21:13.141Z,6.28
2022-11-16T00:23:41.026Z,8.43
2022-11-16T00:26:11.205Z,8.75
2022-11-16T00:28:39.021Z,7.55
2022-11-16T00:31:08.937Z,8.80
2022-11-16T00:33:37.159Z,11.48
2022-11-16T00:36:06.477Z,7.40
2022-11-16T00:38:34.910Z,7.43
2022-11-16T00:41:03.060Z,11.25
2022-11-16T00:43:30.901Z,6.85
2022-11-16T00:45:58.659Z,8.38
2022-11-16T00:48:27.810Z,7.47
2022-11-16T00:50:55.787Z,7.43
2022-11-16T00:53:24.052Z,8.80
2022-11-16T00:55:51.942Z,8.82
2022-11-16T00:58:21.265Z,7.85
2022-11-16T01:00:55.427Z,8.38
2022-11-16T01:03:25.200Z,7.28
2022-11-16T01:05:54.363Z,6.78
2022-11-16T01:08:22.141Z,7.93
2022-11-16T01:10:50.043Z,7.38
2022-11-16T01:13:16.886Z,7.47
2022-11-16T01:15:48.547Z,6.70
2022-11-16T01:18:16.379Z,8.75
2022-11-16T01:20:44.156Z,7.97
2022-11-16T01:23:13.283Z,7.22
2022-11-16T01:25:41.058Z,9.02
2022-11-16T01:28:09.221Z,7.78
2022-11-16T01:30:49.368Z,6.22
2022-11-16T01:33:17.506Z,7.78
2022-11-16T01:35:45.423Z,6.30
2022-11-16T01:38:17.414Z,6.22
2022-11-16T01:40:45.945Z,5.68
2022-11-16T01:43:17.622Z,8.55
2022-11-16T01:45:47.046Z,6.00
2022-11-16T01:48:21.323Z,5.65
2022-11-16T01:50:50.862Z,9.63
2022-11-16T01:53:20.855Z,7.15
2022-11-16T01:55:53.393Z,6.43
2022-11-16T01:58:33.852Z,4.93
2022-11-16T02:01:19.134Z,4.57
2022-11-16T02:03:54.061Z,4.75
2022-11-16T02:06:47.412Z,4.65
2022-11-16T02:09:54.901Z,3.93
2022-11-16T02:13:01.292Z,3.97
2022-11-16T02:15:47.260Z,4.22
2022-11-16T02:18:31.526Z,4.85
2022-11-16T02:21:09.156Z,3.63
2022-11-16T02:24:07.437Z,3.75
2022-11-16T02:27:03.515Z,2.10
2022-11-16T02:29:36.855Z,3.25
2022-11-16T02:32:11.908Z,2.05
2022-11-16T02:34:43.764Z,2.10
2022-11-16T02:37:15.761Z,1.83
2022-11-16T02:39:47.312Z,4.25
2022-11-16T02:42:20.213Z,1.50
2022-11-16T02:44:52.561Z,1.17
2022-11-16T02:47:24.106Z,1.13
2022-11-16T02:49:57.210Z,1.30
2022-11-16T02:52:28.266Z,1.10
2022-11-16T02:54:56.589Z,1.40
2022-11-16T02:57:41.274Z,1.30
2022-11-16T03:00:21.098Z,1.33
2022-11-16T03:03:04.047Z,4.15
2022-11-16T03:05:36.442Z,1.33
2022-11-16T03:08:27.459Z,1.73
2022-11-16T03:11:17.554Z,2.13
2022-11-16T03:13:46.150Z,1.60
2022-11-16T03:16:19.930Z,1.30
2022-11-16T03:18:48.649Z,1.55
2022-11-16T03:21:26.320Z,2.13
2022-11-16T03:23:54.567Z,1.60
2022-11-16T03:26:27.693Z,1.88
2022-11-16T03:29:00.541Z,3.08
2022-11-16T03:31:38.965Z,1.90
2022-11-16T03:34:13.268Z,3.45
2022-11-16T03:36:44.503Z,2.10
2022-11-16T03:39:17.654Z,3.00
2022-11-16T03:41:49.216Z,2.43
2022-11-16T03:44:20.175Z,3.97
2022-11-16T03:46:49.467Z,3.05
2022-11-16T03:49:22.021Z,2.70
2022-11-16T03:51:50.682Z,2.72
2022-11-16T03:54:18.829Z,6.30
2022-11-16T03:56:46.783Z,2.33
2022-11-16T03:59:14.593Z,2.75
2022-11-16T04:01:44.911Z,2.70
2022-11-16T04:04:29.504Z,5.93
2022-11-16T04:07:15.674Z,2.85
2022-11-16T04:10:00.930Z,2.60
2022-11-16T04:12:46.261Z,2.60
2022-11-16T04:15:31.570Z,3.90
2022-11-16T04:18:17.523Z,4.80
2022-11-16T04:21:04.141Z,4.18
2022-11-16T04:23:50.242Z,8.10
2022-11-16T04:26:18.922Z,4.55
2022-11-16T04:28:46.813Z,3.47
2022-11-16T04:31:33.055Z,3.65
2022-11-16T04:34:37.323Z,4.22
2022-11-16T04:37:24.381Z,5.10
2022-11-16T04:39:52.157Z,2.97
2022-11-16T04:42:22.278Z,3.17
2022-11-16T04:45:10.101Z,3.17
2022-11-16T04:47:46.545Z,2.30
2022-11-16T04:50:14.938Z,3.58
2022-11-16T04:52:44.985Z,3.70
2022-11-16T04:55:14.837Z,7.25
2022-11-16T04:57:44.824Z,2.57
2022-11-16T05:00:14.774Z,2.80
2022-11-16T05:02:42.671Z,3.00
2022-11-16T05:05:11.279Z,2.10
2022-11-16T05:07:42.255Z,4.00
2022-11-16T05:10:21.225Z,2.78
2022-11-16T05:12:50.511Z,3.87
2022-11-16T05:15:19.724Z,3.20
2022-11-16T05:17:48.507Z,2.08
2022-11-16T05:20:37.963Z,2.83
2022-11-16T05:23:26.452Z,3.78
2022-11-16T05:25:55.348Z,4.20
2022-11-16T05:28:23.738Z,3.07
2022-11-16T05:30:52.450Z,1.93
2022-11-16T05:33:23.751Z,3.50
2022-11-16T05:35:52.861Z,2.17
2022-11-16T05:38:22.061Z,1.77
2022-11-16T05:40:53.908Z,3.30
2022-11-16T05:43:23.328Z,2.60
2022-11-16T05:45:59.934Z,2.13
2022-11-16T05:48:27.826Z,4.07
2022-11-16T05:50:59.475Z,1.57
2022-11-16T05:53:29.355Z,2.67
2022-11-16T05:55:58.859Z,1.80
2022-11-16T05:58:28.705Z,2.50
2022-11-16T06:00:58.807Z,6.07
2022-11-16T06:03:29.263Z,1.77
2022-11-16T06:05:58.013Z,7.90
2022-11-16T06:08:28.194Z,3.50
2022-11-16T06:11:02.986Z,1.80
2022-11-16T06:13:33.044Z,2.60
2022-11-16T06:16:03.072Z,6.63
2022-11-16T06:18:33.154Z,5.73
2022-11-16T06:21:02.375Z,5.03
2022-11-16T06:23:30.353Z,2.80
2022-11-16T06:25:59.020Z,3.33
2022-11-16T06:28:29.554Z,5.07
2022-11-16T06:30:59.362Z,6.07
2022-11-16T06:33:33.352Z,3.70
2022-11-16T06:36:04.591Z,3.03
2022-11-16T06:38:33.540Z,7.57
2022-11-16T06:41:02.228Z,3.70
2022-11-16T06:43:33.142Z,3.27
2022-11-16T06:46:03.479Z,5.80
2022-11-16T06:51:42.747Z,6.27
2022-11-16T06:54:10.773Z,3.73
2022-11-16T06:56:38.644Z,5.77
2022-11-16T06:59:07.858Z,7.57
2022-11-16T07:01:37.598Z,4.20
2022-11-16T07:04:12.047Z,10.47
2022-11-16T07:06:44.363Z,4.80
2022-11-16T07:09:16.179Z,5.90
2022-11-16T07:11:45.002Z,3.37
2022-11-16T07:14:14.784Z,3.00
2022-11-16T07:16:45.732Z,8.50
2022-11-16T07:19:14.191Z,6.80
2022-11-16T07:21:43.595Z,5.07
2022-11-16T07:24:16.240Z,5.67
2022-11-16T07:26:44.154Z,9.20
2022-11-16T07:29:17.690Z,11.07
2022-11-16T07:32:06.327Z,6.27
2022-11-16T07:34:59.227Z,3.90
2022-11-16T07:37:27.915Z,4.73
2022-11-16T07:39:56.405Z,3.50
2022-11-16T07:42:26.096Z,5.93
2022-11-16T07:45:23.473Z,5.90
2022-11-16T07:47:59.083Z,4.87
2022-11-16T07:50:45.883Z,6.27
2022-11-16T07:53:13.903Z,5.40
2022-11-16T07:55:42.052Z,4.50
2022-11-16T07:58:10.948Z,5.23
2022-11-16T08:00:39.573Z,8.03
2022-11-16T08:03:21.807Z,7.57
2022-11-16T08:05:59.666Z,7.83
2022-11-16T08:08:27.689Z,5.37
2022-11-16T08:11:00.861Z,5.43
2022-11-16T08:13:31.839Z,7.03
2022-11-16T08:16:01.950Z,6.83
2022-11-16T08:18:31.615Z,6.93
2022-11-16T08:21:00.500Z,5.43
2022-11-16T08:23:30.458Z,4.97
2022-11-16T08:25:59.945Z,5.65
2022-11-16T08:28:29.296Z,5.90
2022-11-16T08:30:58.273Z,5.35
2022-11-16T08:33:26.859Z,4.97
2022-11-16T08:35:58.725Z,6.80
2022-11-16T08:38:26.780Z,8.55
2022-11-16T08:40:56.518Z,7.30
2022-11-16T08:43:26.535Z,6.25
2022-11-16T08:45:54.675Z,6.53
2022-11-16T08:48:23.266Z,9.88
2022-11-16T08:51:16.034Z,9.57
2022-11-16T08:53:43.913Z,10.23
2022-11-16T08:56:13.665Z,5.38
2022-11-16T08:58:44.376Z,5.70
2022-11-16T09:01:16.356Z,8.05
2022-11-16T09:03:45.194Z,7.47
2022-11-16T09:06:14.224Z,8.25
2022-11-16T09:08:45.080Z,6.40
2022-11-16T09:11:16.768Z,6.10
2022-11-16T09:13:44.767Z,5.60
2022-11-16T09:16:15.806Z,8.45
2022-11-16T09:18:44.223Z,6.43
2022-11-16T09:21:11.995Z,8.23
2022-11-16T09:23:39.761Z,6.95
2022-11-16T09:26:09.046Z,6.32
2022-11-16T09:28:37.153Z,6.55
2022-11-16T09:31:06.068Z,7.63
2022-11-16T09:33:35.185Z,6.00
2022-11-16T09:36:06.826Z,7.25
2022-11-16T09:38:55.739Z,5.18
2022-11-16T09:41:41.632Z,8.80
2022-11-16T09:44:18.595Z,7.20
2022-11-16T09:46:48.932Z,7.97
2022-11-16T09:49:21.607Z,6.40
2022-11-16T09:51:54.220Z,6.97
2022-11-16T09:54:25.451Z,9.57
2022-11-16T09:56:58.119Z,8.82
2022-11-16T09:59:29.852Z,5.60
2022-11-16T10:02:02.262Z,5.88
2022-11-16T10:04:39.395Z,8.05
2022-11-16T10:07:14.040Z,5.70
2022-11-16T10:09:42.485Z,5.20
2022-11-16T10:12:18.087Z,5.60
2022-11-16T10:15:31.891Z,5.43
2022-11-16T10:18:12.288Z,5.95
2022-11-16T10:21:04.352Z,4.63
2022-11-16T10:23:50.101Z,4.13
2022-11-16T10:26:28.482Z,7.25
2022-11-16T10:29:19.715Z,8.82
2022-11-16T10:32:02.349Z,6.72
2022-11-16T10:34:38.708Z,5.22
2022-11-16T10:37:08.499Z,4.47
2022-11-16T10:39:40.842Z,6.15
2022-11-16T10:42:12.817Z,5.72
2022-11-16T10:44:45.283Z,4.82
2022-11-16T10:47:21.835Z,5.15
2022-11-16T10:49:57.068Z,6.20
2022-11-16T10:52:25.098Z,6.82
2022-11-16T10:54:53.637Z,7.13
2022-11-16T10:57:23.727Z,6.57
2022-11-16T10:59:55.739Z,4.00
2022-11-16T11:02:35.896Z,4.95
2022-11-16T11:05:15.504Z,9.75
2022-11-16T11:07:46.751Z,7.13
2022-11-16T11:10:29.592Z,6.35
2022-11-16T11:13:22.043Z,7.53
2022-11-16T11:15:51.409Z,5.78
2022-11-16T11:18:26.840Z,4.47
2022-11-16T11:21:07.861Z,5.80
2022-11-16T11:23:43.438Z,7.07
2022-11-16T11:26:36.168Z,6.80
2022-11-16T11:29:16.740Z,6.55
2022-11-16T11:31:48.449Z,6.93
2022-11-16T11:34:21.429Z,6.25
2022-11-16T11:36:53.743Z,7.00
2022-11-16T11:39:33.863Z,5.57
2022-11-16T11:42:05.319Z,4.88
2022-11-16T11:44:39.574Z,7.88
2022-11-16T11:50:17.645Z,6.18
2022-11-16T11:52:58.514Z,5.68
2022-11-16T11:55:26.960Z,2.60
2022-11-16T11:57:57.322Z,6.85
2022-11-16T12:00:26.047Z,4.90
2022-11-16T12:03:22.042Z,4.88
2022-11-16T12:06:11.467Z,4.40
2022-11-16T12:08:51.601Z,3.95
2022-11-16T12:11:27.364Z,5.20
2022-11-16T12:14:14.402Z,4.70
2022-11-16T12:16:50.785Z,3.83
2022-11-16T12:19:44.459Z,4.97
2022-11-16T12:22:30.154Z,8.02
2022-11-16T12:25:16.443Z,6.20
2022-11-16T12:27:51.429Z,7.28
2022-11-16T12:30:21.856Z,3.72
2022-11-16T12:33:11.546Z,6.18
2022-11-16T12:35:51.763Z,5.25
2022-11-16T12:38:30.130Z,5.15
2022-11-16T12:41:11.858Z,4.22
2022-11-16T12:43:50.079Z,7.72
2022-11-16T12:46:28.295Z,7.25
2022-11-16T12:49:26.400Z,7.07
2022-11-16T12:52:09.936Z,4.13
2022-11-16T12:55:24.749Z,7.90
2022-11-16T12:57:58.198Z,4.47
2022-11-16T13:00:27.982Z,8.13
2022-11-16T13:03:12.653Z,5.32
2022-11-16T13:05:57.035Z,5.45
2022-11-16T13:08:37.003Z,5.10
2022-11-16T13:11:12.488Z,8.27
2022-11-16T13:13:42.039Z,4.78
2022-11-16T13:16:11.504Z,4.80
2022-11-16T13:18:42.506Z,4.93
2022-11-16T13:21:21.060Z,7.53
2022-11-16T13:24:01.959Z,5.15
2022-11-16T13:26:36.491Z,6.18
2022-11-16T13:29:15.685Z,6.18
2022-11-16T13:31:50.237Z,6.15
2022-11-16T13:34:24.426Z,6.00
2022-11-16T13:36:52.186Z,8.70
2022-11-16T13:39:42.080Z,4.53
2022-11-16T13:42:14.271Z,6.88
2022-11-16T13:44:44.255Z,5.75
2022-11-16T13:47:22.986Z,5.95
2022-11-16T13:49:53.330Z,8.10
2022-11-16T13:52:24.991Z,6.28
2022-11-16T13:55:16.029Z,6.07
2022-11-16T13:57:51.977Z,6.22
2022-11-16T14:00:24.288Z,7.15
2022-11-16T14:03:26.799Z,9.18
2022-11-16T14:05:54.716Z,6.43
2022-11-16T14:08:48.469Z,7.22
2022-11-16T14:11:33.006Z,7.88
2022-11-16T14:14:05.506Z,8.95
2022-11-16T14:16:54.489Z,11.80
2022-11-16T14:19:52.858Z,7.57
2022-11-16T14:22:39.619Z,9.88
2022-11-16T14:25:18.579Z,8.20
2022-11-16T14:27:56.489Z,8.25
2022-11-16T14:30:28.529Z,8.60
2022-11-16T14:32:58.349Z,8.60
2022-11-16T14:35:33.755Z,8.80
2022-11-16T14:38:04.670Z,5.25
2022-11-16T14:40:35.470Z,7.47
2022-11-16T14:43:16.829Z,5.40
2022-11-16T14:45:49.119Z,9.55
2022-11-16T14:48:19.033Z,5.35
2022-11-16T14:50:58.389Z,7.57
2022-11-16T14:53:28.088Z,6.65
2022-11-16T14:56:07.429Z,6.45
2022-11-16T14:58:37.112Z,5.63
2022-11-16T15:01:08.336Z,5.07
2022-11-16T15:03:41.240Z,6.53
2022-11-16T15:06:09.525Z,5.57
2022-11-16T15:08:44.206Z,5.95
2022-11-16T15:11:23.463Z,5.70
2022-11-16T15:13:52.990Z,5.60
2022-11-16T15:16:21.569Z,7.55
2022-11-16T15:19:03.120Z,8.13
2022-11-16T15:21:30.958Z,8.10
2022-11-16T15:26:46.812Z,9.50
2022-11-16T15:29:18.936Z,7.82
2022-11-16T15:31:47.783Z,7.38
2022-11-16T15:34:18.410Z,13.15
2022-11-16T15:36:47.524Z,12.23
2022-11-16T15:39:19.616Z,10.32
2022-11-16T15:41:47.827Z,5.80
2022-11-16T15:44:20.157Z,8.68
2022-11-16T15:46:50.390Z,8.10
2022-11-16T15:49:34.678Z,6.38
2022-11-16T15:52:03.090Z,9.07
2022-11-16T15:54:54.442Z,12.27
2022-11-16T15:57:24.604Z,9.83
2022-11-16T15:59:55.997Z,10.00
2022-11-16T16:02:27.401Z,7.13
2022-11-16T16:04:55.321Z,7.90
2022-11-16T16:07:40.279Z,6.00
2022-11-16T16:10:25.154Z,10.30
2022-11-16T16:12:54.721Z,14.63
2022-11-16T16:15:26.233Z,12.17
2022-11-16T16:17:55.562Z,9.67
2022-11-16T16:20:25.966Z,5.20
2022-11-16T16:22:54.544Z,8.07
2022-11-16T16:25:28.663Z,5.22
2022-11-16T16:27:58.269Z,6.83
2022-11-16T16:30:30.424Z,7.00
2022-11-16T16:32:58.561Z,8.40
2022-11-16T16:35:28.470Z,5.17
2022-11-16T16:37:59.595Z,7.57
2022-11-16T16:40:29.399Z,4.57
2022-11-16T16:42:57.974Z,8.13
2022-11-16T16:45:37.260Z,7.10
2022-11-16T16:48:05.892Z,7.67
2022-11-16T16:50:33.864Z,4.60
2022-11-16T16:53:02.373Z,12.30
2022-11-16T16:55:36.722Z,6.73
2022-11-16T16:58:06.503Z,6.80
2022-11-16T17:00:37.222Z,14.80
2022-11-16T17:03:06.692Z,11.87
2022-11-16T17:05:36.495Z,6.30
2022-11-16T17:08:05.617Z,7.70
2022-11-16T17:10:34.494Z,6.93
2022-11-16T17:13:03.941Z,5.97
2022-11-16T17:15:32.153Z,5.10
2022-11-16T17:18:01.844Z,9.23
2022-11-16T17:20:29.824Z,9.53
2022-11-16T17:22:58.025Z,7.03
2022-11-16T17:25:26.280Z,6.93
2022-11-16T17:27:54.375Z,6.43
2022-11-16T17:30:22.536Z,6.23
2022-11-16T17:32:50.653Z,8.93
2022-11-16T17:35:20.123Z,6.40
2022-11-16T17:37:48.261Z,10.47
2022-11-16T17:40:17.127Z,12.43
2022-11-16T17:42:45.873Z,9.53
2022-11-16T17:45:14.224Z,7.93
2022-11-16T17:47:42.670Z,6.60
2022-11-16T17:50:11.597Z,14.10
2022-11-16T17:52:41.625Z,7.90
2022-11-16T17:55:10.123Z,6.93
2022-11-16T17:57:37.983Z,11.13
2022-11-16T18:00:07.490Z,11.23
2022-11-16T18:02:37.171Z,60.17
2022-11-16T18:05:08.029Z,77.03
2022-11-16T18:07:43.466Z,26.77
2022-11-16T18:10:18.891Z,7.50
2022-11-16T18:12:47.621Z,8.13
2022-11-16T18:15:28.342Z,7.17
2022-11-16T18:17:58.142Z,7.77
2022-11-16T18:20:30.612Z,7.87
2022-11-16T18:23:01.659Z,11.17
2022-11-16T18:25:33.305Z,5.77
2022-11-16T18:28:01.563Z,11.03
2022-11-16T18:33:40.483Z,11.43
2022-11-16T18:36:13.783Z,7.77
2022-11-16T18:45:05.324Z,5.20
2022-11-16T18:47:39.679Z,6.53
2022-11-16T18:50:18.947Z,7.37
2022-11-16T18:52:49.582Z,7.83
2022-11-16T18:55:18.937Z,6.67
2022-11-16T18:57:50.188Z,10.30
2022-11-16T19:00:21.346Z,5.93
2022-11-16T19:02:49.840Z,7.80
2022-11-16T19:05:18.136Z,6.47
2022-11-16T19:07:49.546Z,9.30
2022-11-16T19:10:18.397Z,9.57
2022-11-16T19:12:47.391Z,7.43
2022-11-16T19:15:16.051Z,5.27
2022-11-16T19:18:19.920Z,17.27
2022-11-16T19:20:47.507Z,11.17
2022-11-16T19:23:16.519Z,9.60
2022-11-16T19:25:45.502Z,6.30
2022-11-16T19:28:13.447Z,7.87
2022-11-16T19:30:41.720Z,4.97
2022-11-16T19:33:11.810Z,9.97
2022-11-16T19:35:40.367Z,9.23
2022-11-16T19:38:08.439Z,6.70
2022-11-16T19:40:38.042Z,8.43
2022-11-16T19:43:06.206Z,5.43
2022-11-16T19:45:34.129Z,8.20
2022-11-16T19:48:02.038Z,8.10
2022-11-16T19:50:31.263Z,7.20
2022-11-16T19:52:59.323Z,10.27
2022-11-16T19:55:27.445Z,10.17
2022-11-16T19:57:55.253Z,7.97
2022-11-16T20:00:23.334Z,5.37
2022-11-16T20:02:55.965Z,7.07
2022-11-16T20:05:24.158Z,5.40
2022-11-16T20:07:53.579Z,4.67
2022-11-16T20:10:21.416Z,8.37
2022-11-16T20:12:49.647Z,6.07
2022-11-16T20:15:17.610Z,7.57
2022-11-16T20:17:45.418Z,8.57
2022-11-16T20:20:13.241Z,9.33
2022-11-16T20:22:41.356Z,10.37
2022-11-16T20:25:11.232Z,9.10
2022-11-16T20:27:38.985Z,9.60
2022-11-16T20:30:09.880Z,9.27
2022-11-16T20:32:38.049Z,8.17
2022-11-16T20:35:06.329Z,6.23
2022-11-16T20:37:34.480Z,6.67
2022-11-16T20:40:02.466Z,9.37
2022-11-16T20:42:32.541Z,7.63
2022-11-16T20:45:04.663Z,6.73
2022-11-16T20:47:34.264Z,8.80
2022-11-16T20:50:05.457Z,8.87
2022-11-16T20:52:38.208Z,9.17
2022-11-16T20:55:11.870Z,13.50
2022-11-16T20:57:46.139Z,7.10
2022-11-16T21:00:20.919Z,8.43
2022-11-16T21:02:53.064Z,5.73
2022-11-16T21:05:24.647Z,9.23
2022-11-16T21:07:55.489Z,6.70
2022-11-16T21:10:24.153Z,7.07
2022-11-16T21:13:17.610Z,10.73
2022-11-16T21:16:00.488Z,8.70
2022-11-16T21:18:41.291Z,9.30
2022-11-16T21:21:13.113Z,5.43
2022-11-16T21:23:52.407Z,7.80
2022-11-16T21:26:31.758Z,8.63
2022-11-16T21:29:16.559Z,6.07
2022-11-16T21:31:49.737Z,6.60
2022-11-16T21:34:39.766Z,9.10
2022-11-16T21:37:15.635Z,6.93
2022-11-16T21:39:49.932Z,6.07
2022-11-16T21:42:20.386Z,8.20
2022-11-16T21:44:57.775Z,8.77
2022-11-16T21:47:26.174Z,8.70
2022-11-16T21:50:24.811Z,7.73
2022-11-16T21:52:42.866Z,7.73
2022-11-16T21:55:12.133Z,7.50
2022-11-16T21:57:40.169Z,5.93
2022-11-16T22:00:11.643Z,8.70
2022-11-16T22:02:39.967Z,9.13
2022-11-16T22:05:27.599Z,9.73
2022-11-16T22:07:55.869Z,7.37
2022-11-16T22:10:23.826Z,9.70
2022-11-16T22:12:51.737Z,7.77
2022-11-16T22:15:21.357Z,6.13
2022-11-16T22:17:49.352Z,8.10
2022-11-16T22:20:18.195Z,8.37
2022-11-16T22:22:46.167Z,9.00
2022-11-16T22:25:14.264Z,6.43
2022-11-16T22:28:13.451Z,10.43
2022-11-16T22:30:31.684Z,9.10
2022-11-16T22:32:59.659Z,6.73
2022-11-16T22:35:27.633Z,7.63
2022-11-16T22:37:55.945Z,10.60
2022-11-16T22:40:24.001Z,8.37
2022-11-16T22:42:53.382Z,8.13
2022-11-16T22:45:21.229Z,6.93
2022-11-16T22:47:54.743Z,9.07
2022-11-16T22:50:24.028Z,10.00
2022-11-16T22:52:51.819Z,6.80
2022-11-16T22:55:19.642Z,11.90
2022-11-16T22:57:47.566Z,5.50
2022-11-16T23:00:16.066Z,6.90
2022-11-16T23:02:44.094Z,8.20
2022-11-16T23:05:13.760Z,8.23
2022-11-16T23:07:43.843Z,8.80
2022-11-16T23:10:12.087Z,7.50
2022-11-16T23:12:57.606Z,9.37
2022-11-16T23:15:48.726Z,6.13
2022-11-16T23:18:17.200Z,7.03
2022-11-16T23:21:04.337Z,8.03
2022-11-16T23:23:50.078Z,8.43
2022-11-16T23:26:48.908Z,7.50
2022-11-16T23:29:16.816Z,6.73
2022-11-16T23:31:45.259Z,7.13
2022-11-16T23:34:13.127Z,8.60
2022-11-16T23:36:43.135Z,5.67
2022-11-16T23:39:11.244Z,8.13
2022-11-16T23:41:56.504Z,8.60
2022-11-16T23:44:24.477Z,8.13
2022-11-16T23:46:52.400Z,6.13
2022-11-16T23:49:20.370Z,4.90
2022-11-16T23:51:49.566Z,7.23
2022-11-16T23:54:17.452Z,5.53
2022-11-16T23:56:45.314Z,5.00
2022-11-16T23:59:13.236Z,6.57
